sensor_id;sensor_type;location;lat;lon;timestamp;P1;durP1;ratioP1;P2;durP2;ratioP2
72205;SDS011;60111;48.286;7.812;2023-04-15T00:00:59;11.05;;;5.22;;
72205;SDS011;60111;48.286;7.812;2023-04-15T00:03:33;11.28;;;5.83;;
72205;SDS011;60111;48.286;7.812;2023-04-15T00:06:06;10.80;;;5.30;;
72205;SDS011;60111;48.286;7.812;2023-04-15T00:08:39;13.47;;;5.63;;
72205;SDS011;60111;48.286;7.812;2023-04-15T00:11:12;12.82;;;5.22;;
72205;SDS011;60111;48.286;7.812;2023-04-15T00:13:45;11.90;;;5.25;;
72205;SDS011;60111;48.286;7.812;2023-04-15T00:16:18;11.57;;;5.30;;
72205;SDS011;60111;48.286;7.812;2023-04-15T00:18:51;13.20;;;5.15;;
72205;SDS011;60111;48.286;7.812;2023-04-15T00:21:23;10.72;;;4.78;;
72205;SDS011;60111;48.286;7.812;2023-04-15T00:23:57;9.83;;;4.33;;
72205;SDS011;60111;48.286;7.812;2023-04-15T00:26:31;13.20;;;4.43;;
72205;SDS011;60111;48.286;7.812;2023-04-15T00:29:05;9.20;;;4.30;;
72205;SDS011;60111;48.286;7.812;2023-04-15T00:31:38;11.48;;;4.28;;
72205;SDS011;60111;48.286;7.812;2023-04-15T00:34:10;8.43;;;4.55;;
72205;SDS011;60111;48.286;7.812;2023-04-15T00:36:43;9.13;;;4.90;;
72205;SDS011;60111;48.286;7.812;2023-04-15T00:41:49;9.53;;;4.17;;
72205;SDS011;60111;48.286;7.812;2023-04-15T00:44:22;7.97;;;4.37;;
72205;SDS011;60111;48.286;7.812;2023-04-15T00:46:55;8.05;;;4.08;;
72205;SDS011;60111;48.286;7.812;2023-04-15T00:49:30;8.70;;;4.42;;
72205;SDS011;60111;48.286;7.812;2023-04-15T00:52:02;6.73;;;2.80;;
72205;SDS011;60111;48.286;7.812;2023-04-15T00:54:35;5.80;;;2.47;;
72205;SDS011;60111;48.286;7.812;2023-04-15T00:57:08;4.87;;;2.20;;
72205;SDS011;60111;48.286;7.812;2023-04-15T00:59:40;5.62;;;1.75;;
72205;SDS011;60111;48.286;7.812;2023-04-15T01:02:13;4.35;;;1.75;;
72205;SDS011;60111;48.286;7.812;2023-04-15T01:04:46;4.00;;;2.00;;
72205;SDS011;60111;48.286;7.812;2023-04-15T01:07:19;7.15;;;1.65;;
72205;SDS011;60111;48.286;7.812;2023-04-15T01:09:51;4.35;;;1.82;;
72205;SDS011;60111;48.286;7.812;2023-04-15T01:12:25;4.20;;;1.85;;
72205;SDS011;60111;48.286;7.812;2023-04-15T01:14:59;3.17;;;1.90;;
72205;SDS011;60111;48.286;7.812;2023-04-15T01:17:32;4.43;;;1.67;;
72205;SDS011;60111;48.286;7.812;2023-04-15T01:20:05;4.80;;;1.90;;
72205;SDS011;60111;48.286;7.812;2023-04-15T01:22:40;3.73;;;1.80;;
72205;SDS011;60111;48.286;7.812;2023-04-15T01:25:16;4.12;;;1.90;;
72205;SDS011;60111;48.286;7.812;2023-04-15T01:27:50;5.67;;;2.05;;
72205;SDS011;60111;48.286;7.812;2023-04-15T01:30:23;4.58;;;1.90;;
72205;SDS011;60111;48.286;7.812;2023-04-15T01:32:56;3.50;;;2.00;;
72205;SDS011;60111;48.286;7.812;2023-04-15T01:35:30;4.37;;;1.80;;
72205;SDS011;60111;48.286;7.812;2023-04-15T01:40:37;3.83;;;1.50;;
72205;SDS011;60111;48.286;7.812;2023-04-15T01:43:10;2.97;;;1.73;;
72205;SDS011;60111;48.286;7.812;2023-04-15T01:45:43;3.58;;;1.60;;
72205;SDS011;60111;48.286;7.812;2023-04-15T01:48:16;3.03;;;1.80;;
72205;SDS011;60111;48.286;7.812;2023-04-15T01:50:49;6.03;;;2.08;;
72205;SDS011;60111;48.286;7.812;2023-04-15T01:53:23;9.40;;;2.25;;
72205;SDS011;60111;48.286;7.812;2023-04-15T01:55:56;5.83;;;1.90;;
72205;SDS011;60111;48.286;7.812;2023-04-15T01:58:29;5.95;;;1.67;;
72205;SDS011;60111;48.286;7.812;2023-04-15T02:01:02;2.72;;;1.50;;
72205;SDS011;60111;48.286;7.812;2023-04-15T02:03:36;3.73;;;1.47;;
72205;SDS011;60111;48.286;7.812;2023-04-15T02:06:09;4.28;;;1.45;;
72205;SDS011;60111;48.286;7.812;2023-04-15T02:08:42;4.47;;;1.60;;
72205;SDS011;60111;48.286;7.812;2023-04-15T02:11:14;3.37;;;1.93;;
72205;SDS011;60111;48.286;7.812;2023-04-15T02:13:47;3.35;;;2.00;;
72205;SDS011;60111;48.286;7.812;2023-04-15T02:16:20;5.08;;;2.30;;
72205;SDS011;60111;48.286;7.812;2023-04-15T02:18:53;4.65;;;2.00;;
72205;SDS011;60111;48.286;7.812;2023-04-15T02:21:26;5.50;;;2.20;;
72205;SDS011;60111;48.286;7.812;2023-04-15T02:23:58;7.05;;;2.98;;
72205;SDS011;60111;48.286;7.812;2023-04-15T02:26:32;8.23;;;4.03;;
72205;SDS011;60111;48.286;7.812;2023-04-15T02:29:05;5.60;;;3.10;;
72205;SDS011;60111;48.286;7.812;2023-04-15T02:31:38;5.07;;;3.00;;
72205;SDS011;60111;48.286;7.812;2023-04-15T02:34:12;8.28;;;3.10;;
72205;SDS011;60111;48.286;7.812;2023-04-15T02:36:44;7.30;;;3.00;;
72205;SDS011;60111;48.286;7.812;2023-04-15T02:39:18;5.40;;;2.70;;
72205;SDS011;60111;48.286;7.812;2023-04-15T02:41:51;5.20;;;3.05;;
72205;SDS011;60111;48.286;7.812;2023-04-15T02:44:23;4.22;;;2.60;;
72205;SDS011;60111;48.286;7.812;2023-04-15T02:46:58;4.95;;;2.80;;
72205;SDS011;60111;48.286;7.812;2023-04-15T02:49:31;5.55;;;2.83;;
72205;SDS011;60111;48.286;7.812;2023-04-15T02:52:04;5.53;;;3.17;;
72205;SDS011;60111;48.286;7.812;2023-04-15T02:54:37;6.97;;;3.50;;
72205;SDS011;60111;48.286;7.812;2023-04-15T02:57:10;4.80;;;2.75;;
72205;SDS011;60111;48.286;7.812;2023-04-15T02:59:42;6.42;;;2.70;;
72205;SDS011;60111;48.286;7.812;2023-04-15T03:02:15;6.10;;;2.37;;
72205;SDS011;60111;48.286;7.812;2023-04-15T03:04:48;5.35;;;2.55;;
72205;SDS011;60111;48.286;7.812;2023-04-15T03:07:20;6.65;;;2.95;;
72205;SDS011;60111;48.286;7.812;2023-04-15T03:09:53;5.95;;;3.08;;
72205;SDS011;60111;48.286;7.812;2023-04-15T03:12:26;5.03;;;3.25;;
72205;SDS011;60111;48.286;7.812;2023-04-15T03:15:00;6.42;;;3.00;;
72205;SDS011;60111;48.286;7.812;2023-04-15T03:17:33;4.67;;;2.77;;
72205;SDS011;60111;48.286;7.812;2023-04-15T03:20:06;5.45;;;2.75;;
72205;SDS011;60111;48.286;7.812;2023-04-15T03:22:39;5.45;;;2.67;;
72205;SDS011;60111;48.286;7.812;2023-04-15T03:25:11;3.65;;;2.42;;
72205;SDS011;60111;48.286;7.812;2023-04-15T03:27:44;4.90;;;2.52;;
72205;SDS011;60111;48.286;7.812;2023-04-15T03:30:16;6.97;;;2.60;;
72205;SDS011;60111;48.286;7.812;2023-04-15T03:32:49;4.78;;;2.27;;
72205;SDS011;60111;48.286;7.812;2023-04-15T03:35:22;6.58;;;2.40;;
72205;SDS011;60111;48.286;7.812;2023-04-15T03:37:54;5.37;;;2.40;;
72205;SDS011;60111;48.286;7.812;2023-04-15T03:40:27;4.87;;;2.30;;
72205;SDS011;60111;48.286;7.812;2023-04-15T03:43:01;5.30;;;2.67;;
72205;SDS011;60111;48.286;7.812;2023-04-15T03:45:33;6.42;;;3.10;;
72205;SDS011;60111;48.286;7.812;2023-04-15T03:48:06;5.45;;;3.55;;
72205;SDS011;60111;48.286;7.812;2023-04-15T03:50:39;8.00;;;4.80;;
72205;SDS011;60111;48.286;7.812;2023-04-15T03:53:11;7.17;;;2.80;;
72205;SDS011;60111;48.286;7.812;2023-04-15T03:55:44;5.62;;;3.52;;
72205;SDS011;60111;48.286;7.812;2023-04-15T03:58:16;4.80;;;3.25;;
72205;SDS011;60111;48.286;7.812;2023-04-15T04:00:50;6.40;;;3.72;;
72205;SDS011;60111;48.286;7.812;2023-04-15T04:03:23;5.30;;;3.70;;
72205;SDS011;60111;48.286;7.812;2023-04-15T04:05:56;6.90;;;3.53;;
72205;SDS011;60111;48.286;7.812;2023-04-15T04:08:29;5.55;;;2.70;;
72205;SDS011;60111;48.286;7.812;2023-04-15T04:11:02;9.05;;;3.72;;
72205;SDS011;60111;48.286;7.812;2023-04-15T04:13:35;4.97;;;3.80;;
72205;SDS011;60111;48.286;7.812;2023-04-15T04:16:07;4.73;;;2.80;;
72205;SDS011;60111;48.286;7.812;2023-04-15T04:18:42;7.12;;;4.35;;
72205;SDS011;60111;48.286;7.812;2023-04-15T04:21:16;5.40;;;3.57;;
72205;SDS011;60111;48.286;7.812;2023-04-15T04:23:50;4.97;;;2.90;;
72205;SDS011;60111;48.286;7.812;2023-04-15T04:26:22;8.58;;;3.50;;
72205;SDS011;60111;48.286;7.812;2023-04-15T04:28:55;10.00;;;4.75;;
72205;SDS011;60111;48.286;7.812;2023-04-15T04:31:27;7.50;;;3.67;;
72205;SDS011;60111;48.286;7.812;2023-04-15T04:34:00;8.95;;;4.20;;
72205;SDS011;60111;48.286;7.812;2023-04-15T04:36:33;11.20;;;5.95;;
72205;SDS011;60111;48.286;7.812;2023-04-15T04:39:06;10.10;;;5.25;;
72205;SDS011;60111;48.286;7.812;2023-04-15T04:41:39;12.20;;;6.23;;
72205;SDS011;60111;48.286;7.812;2023-04-15T04:44:11;11.68;;;6.30;;
72205;SDS011;60111;48.286;7.812;2023-04-15T04:46:44;14.47;;;7.47;;
72205;SDS011;60111;48.286;7.812;2023-04-15T04:49:16;14.28;;;7.10;;
72205;SDS011;60111;48.286;7.812;2023-04-15T04:51:49;13.68;;;7.92;;
72205;SDS011;60111;48.286;7.812;2023-04-15T04:54:22;12.25;;;7.62;;
72205;SDS011;60111;48.286;7.812;2023-04-15T04:56:54;12.63;;;6.95;;
72205;SDS011;60111;48.286;7.812;2023-04-15T04:59:27;10.68;;;5.85;;
72205;SDS011;60111;48.286;7.812;2023-04-15T05:02:01;10.98;;;5.28;;
72205;SDS011;60111;48.286;7.812;2023-04-15T05:04:34;14.20;;;7.30;;
72205;SDS011;60111;48.286;7.812;2023-04-15T05:07:07;13.83;;;7.90;;
72205;SDS011;60111;48.286;7.812;2023-04-15T05:09:40;12.63;;;7.10;;
72205;SDS011;60111;48.286;7.812;2023-04-15T05:12:13;11.15;;;6.12;;
72205;SDS011;60111;48.286;7.812;2023-04-15T05:14:45;13.67;;;6.10;;
72205;SDS011;60111;48.286;7.812;2023-04-15T05:17:18;9.07;;;5.03;;
72205;SDS011;60111;48.286;7.812;2023-04-15T05:19:50;9.78;;;5.10;;
72205;SDS011;60111;48.286;7.812;2023-04-15T05:22:23;16.87;;;9.88;;
72205;SDS011;60111;48.286;7.812;2023-04-15T05:24:56;10.90;;;7.15;;
72205;SDS011;60111;48.286;7.812;2023-04-15T05:27:29;7.20;;;3.97;;
72205;SDS011;60111;48.286;7.812;2023-04-15T05:30:01;6.28;;;3.60;;
72205;SDS011;60111;48.286;7.812;2023-04-15T05:32:34;7.35;;;4.12;;
72205;SDS011;60111;48.286;7.812;2023-04-15T05:35:07;9.58;;;3.50;;
72205;SDS011;60111;48.286;7.812;2023-04-15T05:37:39;8.25;;;4.20;;
72205;SDS011;60111;48.286;7.812;2023-04-15T05:40:13;8.93;;;3.40;;
72205;SDS011;60111;48.286;7.812;2023-04-15T05:42:46;7.43;;;4.23;;
72205;SDS011;60111;48.286;7.812;2023-04-15T05:45:18;6.05;;;3.15;;
72205;SDS011;60111;48.286;7.812;2023-04-15T05:47:51;7.92;;;3.58;;
72205;SDS011;60111;48.286;7.812;2023-04-15T05:50:24;7.00;;;2.77;;
72205;SDS011;60111;48.286;7.812;2023-04-15T05:52:56;4.00;;;2.90;;
72205;SDS011;60111;48.286;7.812;2023-04-15T05:55:29;6.25;;;3.58;;
72205;SDS011;60111;48.286;7.812;2023-04-15T05:58:03;7.23;;;3.20;;
72205;SDS011;60111;48.286;7.812;2023-04-15T06:00:36;5.22;;;3.85;;
72205;SDS011;60111;48.286;7.812;2023-04-15T06:03:09;6.17;;;3.33;;
72205;SDS011;60111;48.286;7.812;2023-04-15T06:05:42;5.58;;;3.85;;
72205;SDS011;60111;48.286;7.812;2023-04-15T06:08:15;5.77;;;3.43;;
72205;SDS011;60111;48.286;7.812;2023-04-15T06:10:48;5.63;;;3.33;;
72205;SDS011;60111;48.286;7.812;2023-04-15T06:13:22;8.03;;;3.10;;
72205;SDS011;60111;48.286;7.812;2023-04-15T06:15:55;5.73;;;3.17;;
72205;SDS011;60111;48.286;7.812;2023-04-15T06:18:28;6.97;;;3.60;;
72205;SDS011;60111;48.286;7.812;2023-04-15T06:21:01;8.48;;;3.77;;
72205;SDS011;60111;48.286;7.812;2023-04-15T06:23:34;5.37;;;3.35;;
72205;SDS011;60111;48.286;7.812;2023-04-15T06:26:07;5.95;;;3.27;;
72205;SDS011;60111;48.286;7.812;2023-04-15T06:28:39;6.87;;;3.50;;
72205;SDS011;60111;48.286;7.812;2023-04-15T06:31:12;6.65;;;2.67;;
72205;SDS011;60111;48.286;7.812;2023-04-15T06:33:45;5.55;;;3.12;;
72205;SDS011;60111;48.286;7.812;2023-04-15T06:36:17;4.92;;;2.85;;
72205;SDS011;60111;48.286;7.812;2023-04-15T06:38:50;5.80;;;3.20;;
72205;SDS011;60111;48.286;7.812;2023-04-15T06:41:22;9.00;;;2.83;;
72205;SDS011;60111;48.286;7.812;2023-04-15T06:43:57;5.83;;;3.10;;
72205;SDS011;60111;48.286;7.812;2023-04-15T06:46:29;6.65;;;3.15;;
72205;SDS011;60111;48.286;7.812;2023-04-15T06:49:02;9.10;;;3.40;;
72205;SDS011;60111;48.286;7.812;2023-04-15T06:51:36;7.60;;;3.77;;
72205;SDS011;60111;48.286;7.812;2023-04-15T06:54:09;6.53;;;3.20;;
72205;SDS011;60111;48.286;7.812;2023-04-15T06:56:41;5.78;;;3.27;;
72205;SDS011;60111;48.286;7.812;2023-04-15T06:59:14;8.10;;;3.40;;
72205;SDS011;60111;48.286;7.812;2023-04-15T07:01:46;6.25;;;3.50;;
72205;SDS011;60111;48.286;7.812;2023-04-15T07:04:19;11.17;;;3.37;;
72205;SDS011;60111;48.286;7.812;2023-04-15T07:06:52;5.80;;;3.10;;
72205;SDS011;60111;48.286;7.812;2023-04-15T07:09:26;4.42;;;2.77;;
72205;SDS011;60111;48.286;7.812;2023-04-15T07:11:59;4.30;;;2.83;;
72205;SDS011;60111;48.286;7.812;2023-04-15T07:14:32;6.08;;;2.92;;
72205;SDS011;60111;48.286;7.812;2023-04-15T07:17:05;4.58;;;2.15;;
72205;SDS011;60111;48.286;7.812;2023-04-15T07:19:37;3.95;;;2.42;;
72205;SDS011;60111;48.286;7.812;2023-04-15T07:22:10;3.80;;;2.05;;
72205;SDS011;60111;48.286;7.812;2023-04-15T07:24:43;4.95;;;2.52;;
72205;SDS011;60111;48.286;7.812;2023-04-15T07:27:16;4.12;;;2.17;;
72205;SDS011;60111;48.286;7.812;2023-04-15T07:29:49;6.07;;;2.47;;
72205;SDS011;60111;48.286;7.812;2023-04-15T07:32:22;5.20;;;2.37;;
72205;SDS011;60111;48.286;7.812;2023-04-15T07:34:54;3.45;;;2.27;;
72205;SDS011;60111;48.286;7.812;2023-04-15T07:37:28;3.90;;;2.02;;
72205;SDS011;60111;48.286;7.812;2023-04-15T07:40:00;3.50;;;2.10;;
72205;SDS011;60111;48.286;7.812;2023-04-15T07:42:34;4.28;;;1.92;;
72205;SDS011;60111;48.286;7.812;2023-04-15T07:45:08;4.90;;;2.52;;
72205;SDS011;60111;48.286;7.812;2023-04-15T07:47:41;6.20;;;3.03;;
72205;SDS011;60111;48.286;7.812;2023-04-15T07:50:13;4.17;;;2.83;;
72205;SDS011;60111;48.286;7.812;2023-04-15T07:52:47;3.47;;;2.57;;
72205;SDS011;60111;48.286;7.812;2023-04-15T07:55:22;4.83;;;2.60;;
72205;SDS011;60111;48.286;7.812;2023-04-15T07:57:54;8.40;;;2.95;;
72205;SDS011;60111;48.286;7.812;2023-04-15T08:00:27;4.55;;;2.72;;
72205;SDS011;60111;48.286;7.812;2023-04-15T08:03:00;5.53;;;3.15;;
72205;SDS011;60111;48.286;7.812;2023-04-15T08:05:33;5.42;;;2.85;;
72205;SDS011;60111;48.286;7.812;2023-04-15T08:08:06;3.77;;;2.60;;
72205;SDS011;60111;48.286;7.812;2023-04-15T08:10:38;4.63;;;3.00;;
72205;SDS011;60111;48.286;7.812;2023-04-15T08:13:11;7.08;;;2.92;;
72205;SDS011;60111;48.286;7.812;2023-04-15T08:15:43;9.27;;;3.13;;
72205;SDS011;60111;48.286;7.812;2023-04-15T08:18:16;5.25;;;3.15;;
72205;SDS011;60111;48.286;7.812;2023-04-15T08:20:49;5.85;;;3.27;;
72205;SDS011;60111;48.286;7.812;2023-04-15T08:23:22;6.70;;;3.35;;
72205;SDS011;60111;48.286;7.812;2023-04-15T08:25:54;7.03;;;3.25;;
72205;SDS011;60111;48.286;7.812;2023-04-15T08:28:27;4.22;;;3.10;;
72205;SDS011;60111;48.286;7.812;2023-04-15T08:31:00;7.15;;;3.45;;
72205;SDS011;60111;48.286;7.812;2023-04-15T08:33:33;6.10;;;3.10;;
72205;SDS011;60111;48.286;7.812;2023-04-15T08:36:06;7.70;;;2.80;;
72205;SDS011;60111;48.286;7.812;2023-04-15T08:38:40;7.13;;;2.50;;
72205;SDS011;60111;48.286;7.812;2023-04-15T08:41:20;3.80;;;2.27;;
72205;SDS011;60111;48.286;7.812;2023-04-15T08:44:03;5.47;;;2.17;;
72205;SDS011;60111;48.286;7.812;2023-04-15T08:46:34;5.72;;;2.25;;
72205;SDS011;60111;48.286;7.812;2023-04-15T08:49:08;3.33;;;2.02;;
72205;SDS011;60111;48.286;7.812;2023-04-15T08:51:44;6.90;;;2.00;;
72205;SDS011;60111;48.286;7.812;2023-04-15T08:54:17;4.70;;;2.40;;
72205;SDS011;60111;48.286;7.812;2023-04-15T08:56:50;4.50;;;2.02;;
72205;SDS011;60111;48.286;7.812;2023-04-15T08:59:24;4.60;;;1.92;;
72205;SDS011;60111;48.286;7.812;2023-04-15T09:01:56;3.90;;;2.20;;
72205;SDS011;60111;48.286;7.812;2023-04-15T09:04:30;7.37;;;2.10;;
72205;SDS011;60111;48.286;7.812;2023-04-15T09:07:04;3.83;;;2.00;;
72205;SDS011;60111;48.286;7.812;2023-04-15T09:09:37;3.83;;;1.90;;
72205;SDS011;60111;48.286;7.812;2023-04-15T09:12:11;3.67;;;2.22;;
72205;SDS011;60111;48.286;7.812;2023-04-15T09:14:44;2.85;;;1.98;;
72205;SDS011;60111;48.286;7.812;2023-04-15T09:17:18;2.40;;;1.60;;
72205;SDS011;60111;48.286;7.812;2023-04-15T09:20:06;4.33;;;2.37;;
72205;SDS011;60111;48.286;7.812;2023-04-15T09:22:44;3.62;;;1.80;;
72205;SDS011;60111;48.286;7.812;2023-04-15T09:27:59;3.65;;;1.80;;
72205;SDS011;60111;48.286;7.812;2023-04-15T09:30:33;7.85;;;2.17;;
72205;SDS011;60111;48.286;7.812;2023-04-15T09:33:05;4.58;;;2.20;;
72205;SDS011;60111;48.286;7.812;2023-04-15T09:35:39;2.87;;;1.72;;
72205;SDS011;60111;48.286;7.812;2023-04-15T09:38:12;5.03;;;2.00;;
72205;SDS011;60111;48.286;7.812;2023-04-15T09:40:45;4.35;;;2.10;;
72205;SDS011;60111;48.286;7.812;2023-04-15T09:43:17;5.72;;;2.02;;
72205;SDS011;60111;48.286;7.812;2023-04-15T09:45:53;4.95;;;1.98;;
72205;SDS011;60111;48.286;7.812;2023-04-15T09:48:26;4.05;;;2.05;;
72205;SDS011;60111;48.286;7.812;2023-04-15T09:51:00;3.00;;;2.20;;
72205;SDS011;60111;48.286;7.812;2023-04-15T09:53:34;7.72;;;2.08;;
72205;SDS011;60111;48.286;7.812;2023-04-15T09:56:08;3.45;;;2.08;;
72205;SDS011;60111;48.286;7.812;2023-04-15T09:58:42;2.67;;;1.72;;
72205;SDS011;60111;48.286;7.812;2023-04-15T10:01:16;4.57;;;2.23;;
72205;SDS011;60111;48.286;7.812;2023-04-15T10:03:49;4.10;;;1.70;;
72205;SDS011;60111;48.286;7.812;2023-04-15T10:06:24;4.60;;;2.30;;
72205;SDS011;60111;48.286;7.812;2023-04-15T10:08:58;4.70;;;2.03;;
72205;SDS011;60111;48.286;7.812;2023-04-15T10:11:32;5.80;;;2.33;;
72205;SDS011;60111;48.286;7.812;2023-04-15T10:14:05;2.85;;;1.82;;
72205;SDS011;60111;48.286;7.812;2023-04-15T10:19:13;4.65;;;2.02;;
72205;SDS011;60111;48.286;7.812;2023-04-15T10:21:48;5.70;;;2.17;;
72205;SDS011;60111;48.286;7.812;2023-04-15T10:24:22;4.90;;;1.77;;
72205;SDS011;60111;48.286;7.812;2023-04-15T10:26:56;5.00;;;2.35;;
72205;SDS011;60111;48.286;7.812;2023-04-15T10:29:30;3.27;;;1.95;;
72205;SDS011;60111;48.286;7.812;2023-04-15T10:32:03;5.70;;;2.33;;
72205;SDS011;60111;48.286;7.812;2023-04-15T10:34:36;4.33;;;2.33;;
72205;SDS011;60111;48.286;7.812;2023-04-15T10:37:09;4.92;;;2.05;;
72205;SDS011;60111;48.286;7.812;2023-04-15T10:39:42;5.50;;;1.98;;
72205;SDS011;60111;48.286;7.812;2023-04-15T10:42:16;3.33;;;1.77;;
72205;SDS011;60111;48.286;7.812;2023-04-15T10:44:51;5.12;;;2.20;;
72205;SDS011;60111;48.286;7.812;2023-04-15T10:47:27;5.15;;;2.05;;
72205;SDS011;60111;48.286;7.812;2023-04-15T10:50:00;4.78;;;2.10;;
72205;SDS011;60111;48.286;7.812;2023-04-15T10:52:33;5.83;;;2.12;;
72205;SDS011;60111;48.286;7.812;2023-04-15T10:55:14;4.40;;;1.93;;
72205;SDS011;60111;48.286;7.812;2023-04-15T11:00:27;5.70;;;1.60;;
72205;SDS011;60111;48.286;7.812;2023-04-15T11:03:06;3.58;;;1.80;;
72205;SDS011;60111;48.286;7.812;2023-04-15T11:05:51;4.17;;;2.27;;
72205;SDS011;60111;48.286;7.812;2023-04-15T11:11:20;5.23;;;2.57;;
72205;SDS011;60111;48.286;7.812;2023-04-15T11:13:53;5.40;;;2.15;;
72205;SDS011;60111;48.286;7.812;2023-04-15T11:16:27;5.75;;;2.15;;
72205;SDS011;60111;48.286;7.812;2023-04-15T11:19:01;5.23;;;2.13;;
72205;SDS011;60111;48.286;7.812;2023-04-15T11:21:33;6.63;;;4.73;;
72205;SDS011;60111;48.286;7.812;2023-04-15T11:24:06;3.58;;;2.35;;
72205;SDS011;60111;48.286;7.812;2023-04-15T11:26:38;4.30;;;1.70;;
72205;SDS011;60111;48.286;7.812;2023-04-15T11:29:16;6.33;;;2.27;;
72205;SDS011;60111;48.286;7.812;2023-04-15T11:31:48;4.65;;;1.82;;
72205;SDS011;60111;48.286;7.812;2023-04-15T11:34:24;2.55;;;1.67;;
72205;SDS011;60111;48.286;7.812;2023-04-15T11:36:57;4.37;;;1.85;;
72205;SDS011;60111;48.286;7.812;2023-04-15T11:39:31;3.23;;;1.87;;
72205;SDS011;60111;48.286;7.812;2023-04-15T11:42:15;3.20;;;1.75;;
72205;SDS011;60111;48.286;7.812;2023-04-15T11:44:39;6.37;;;2.83;;
72205;SDS011;60111;48.286;7.812;2023-04-15T11:47:22;4.87;;;1.85;;
72205;SDS011;60111;48.286;7.812;2023-04-15T11:49:55;7.85;;;3.42;;
72205;SDS011;60111;48.286;7.812;2023-04-15T11:52:28;4.90;;;2.25;;
72205;SDS011;60111;48.286;7.812;2023-04-15T11:55:02;5.05;;;1.60;;
72205;SDS011;60111;48.286;7.812;2023-04-15T12:00:07;5.00;;;1.30;;
72205;SDS011;60111;48.286;7.812;2023-04-15T12:02:40;3.67;;;1.63;;
72205;SDS011;60111;48.286;7.812;2023-04-15T12:05:13;4.78;;;1.62;;
72205;SDS011;60111;48.286;7.812;2023-04-15T12:07:58;5.10;;;1.70;;
72205;SDS011;60111;48.286;7.812;2023-04-15T12:10:31;4.03;;;1.80;;
72205;SDS011;60111;48.286;7.812;2023-04-15T12:13:05;2.70;;;1.40;;
72205;SDS011;60111;48.286;7.812;2023-04-15T12:15:40;7.87;;;1.65;;
72205;SDS011;60111;48.286;7.812;2023-04-15T12:18:16;3.70;;;2.00;;
72205;SDS011;60111;48.286;7.812;2023-04-15T12:20:49;6.45;;;1.75;;
72205;SDS011;60111;48.286;7.812;2023-04-15T12:23:22;4.35;;;2.10;;
72205;SDS011;60111;48.286;7.812;2023-04-15T12:28:29;4.35;;;2.00;;
72205;SDS011;60111;48.286;7.812;2023-04-15T12:31:06;6.20;;;2.05;;
72205;SDS011;60111;48.286;7.812;2023-04-15T12:33:40;7.12;;;2.77;;
72205;SDS011;60111;48.286;7.812;2023-04-15T12:36:13;3.20;;;1.62;;
72205;SDS011;60111;48.286;7.812;2023-04-15T12:38:46;3.95;;;1.82;;
72205;SDS011;60111;48.286;7.812;2023-04-15T12:41:19;8.50;;;1.90;;
72205;SDS011;60111;48.286;7.812;2023-04-15T12:43:52;6.00;;;1.60;;
72205;SDS011;60111;48.286;7.812;2023-04-15T12:46:24;4.50;;;1.60;;
72205;SDS011;60111;48.286;7.812;2023-04-15T12:48:59;6.83;;;1.77;;
72205;SDS011;60111;48.286;7.812;2023-04-15T12:51:33;3.05;;;1.40;;
72205;SDS011;60111;48.286;7.812;2023-04-15T12:54:05;3.55;;;1.35;;
72205;SDS011;60111;48.286;7.812;2023-04-15T12:56:38;4.30;;;1.90;;
72205;SDS011;60111;48.286;7.812;2023-04-15T12:59:11;3.20;;;1.32;;
72205;SDS011;60111;48.286;7.812;2023-04-15T13:01:45;2.80;;;1.32;;
72205;SDS011;60111;48.286;7.812;2023-04-15T13:04:20;2.00;;;1.10;;
72205;SDS011;60111;48.286;7.812;2023-04-15T13:06:53;3.80;;;1.47;;
72205;SDS011;60111;48.286;7.812;2023-04-15T13:09:25;2.72;;;1.17;;
72205;SDS011;60111;48.286;7.812;2023-04-15T13:11:58;5.12;;;1.42;;
72205;SDS011;60111;48.286;7.812;2023-04-15T13:14:31;1.67;;;1.13;;
72205;SDS011;60111;48.286;7.812;2023-04-15T13:17:03;3.22;;;1.60;;
72205;SDS011;60111;48.286;7.812;2023-04-15T13:19:37;4.45;;;1.62;;
72205;SDS011;60111;48.286;7.812;2023-04-15T13:22:10;2.22;;;1.35;;
72205;SDS011;60111;48.286;7.812;2023-04-15T13:27:16;3.43;;;1.50;;
72205;SDS011;60111;48.286;7.812;2023-04-15T13:29:49;3.92;;;1.50;;
72205;SDS011;60111;48.286;7.812;2023-04-15T13:32:22;2.77;;;1.50;;
72205;SDS011;60111;48.286;7.812;2023-04-15T13:34:55;3.70;;;1.32;;
72205;SDS011;60111;48.286;7.812;2023-04-15T13:37:28;3.58;;;1.15;;
72205;SDS011;60111;48.286;7.812;2023-04-15T13:40:01;1.67;;;1.10;;
72205;SDS011;60111;48.286;7.812;2023-04-15T13:42:35;3.65;;;1.30;;
72205;SDS011;60111;48.286;7.812;2023-04-15T13:45:08;2.20;;;1.22;;
72205;SDS011;60111;48.286;7.812;2023-04-15T13:47:41;4.37;;;1.12;;
72205;SDS011;60111;48.286;7.812;2023-04-15T13:50:13;3.90;;;1.27;;
72205;SDS011;60111;48.286;7.812;2023-04-15T13:52:46;2.20;;;1.25;;
72205;SDS011;60111;48.286;7.812;2023-04-15T13:55:19;4.37;;;1.30;;
72205;SDS011;60111;48.286;7.812;2023-04-15T13:57:51;2.25;;;1.15;;
72205;SDS011;60111;48.286;7.812;2023-04-15T14:00:24;2.03;;;1.03;;
72205;SDS011;60111;48.286;7.812;2023-04-15T14:02:56;1.85;;;1.02;;
72205;SDS011;60111;48.286;7.812;2023-04-15T14:05:29;3.55;;;1.20;;
72205;SDS011;60111;48.286;7.812;2023-04-15T14:10:36;3.83;;;1.10;;
72205;SDS011;60111;48.286;7.812;2023-04-15T14:13:09;2.83;;;1.40;;
72205;SDS011;60111;48.286;7.812;2023-04-15T14:15:42;2.77;;;1.15;;
72205;SDS011;60111;48.286;7.812;2023-04-15T14:18:15;3.30;;;1.40;;
72205;SDS011;60111;48.286;7.812;2023-04-15T14:20:48;4.05;;;1.55;;
72205;SDS011;60111;48.286;7.812;2023-04-15T14:23:22;2.12;;;1.40;;
72205;SDS011;60111;48.286;7.812;2023-04-15T14:25:54;2.77;;;1.37;;
72205;SDS011;60111;48.286;7.812;2023-04-15T14:28:28;4.47;;;1.47;;
72205;SDS011;60111;48.286;7.812;2023-04-15T14:31:02;5.97;;;2.35;;
72205;SDS011;60111;48.286;7.812;2023-04-15T14:33:34;3.90;;;1.30;;
72205;SDS011;60111;48.286;7.812;2023-04-15T14:36:07;1.60;;;1.40;;
72205;SDS011;60111;48.286;7.812;2023-04-15T14:38:40;3.00;;;1.47;;
72205;SDS011;60111;48.286;7.812;2023-04-15T14:41:13;2.40;;;1.50;;
72205;SDS011;60111;48.286;7.812;2023-04-15T14:43:45;2.98;;;2.00;;
72205;SDS011;60111;48.286;7.812;2023-04-15T14:46:18;4.72;;;2.15;;
72205;SDS011;60111;48.286;7.812;2023-04-15T14:48:51;3.35;;;2.42;;
72205;SDS011;60111;48.286;7.812;2023-04-15T14:51:24;5.03;;;1.60;;
72205;SDS011;60111;48.286;7.812;2023-04-15T14:53:56;5.92;;;1.67;;
72205;SDS011;60111;48.286;7.812;2023-04-15T14:56:29;5.55;;;1.70;;
72205;SDS011;60111;48.286;7.812;2023-04-15T14:59:01;3.27;;;1.42;;
72205;SDS011;60111;48.286;7.812;2023-04-15T15:01:36;4.03;;;1.50;;
72205;SDS011;60111;48.286;7.812;2023-04-15T15:04:10;3.40;;;2.02;;
72205;SDS011;60111;48.286;7.812;2023-04-15T15:06:44;2.87;;;1.42;;
72205;SDS011;60111;48.286;7.812;2023-04-15T15:09:17;4.47;;;1.87;;
72205;SDS011;60111;48.286;7.812;2023-04-15T15:11:51;7.27;;;2.27;;
72205;SDS011;60111;48.286;7.812;2023-04-15T15:14:24;4.00;;;2.08;;
72205;SDS011;60111;48.286;7.812;2023-04-15T15:16:57;2.37;;;1.50;;
72205;SDS011;60111;48.286;7.812;2023-04-15T15:19:30;5.30;;;1.85;;
72205;SDS011;60111;48.286;7.812;2023-04-15T15:22:03;4.50;;;1.80;;
72205;SDS011;60111;48.286;7.812;2023-04-15T15:24:36;4.80;;;1.75;;
72205;SDS011;60111;48.286;7.812;2023-04-15T15:27:08;5.03;;;1.72;;
72205;SDS011;60111;48.286;7.812;2023-04-15T15:29:41;3.25;;;1.72;;
72205;SDS011;60111;48.286;7.812;2023-04-15T15:32:14;7.17;;;3.37;;
72205;SDS011;60111;48.286;7.812;2023-04-15T15:34:46;8.05;;;4.67;;
72205;SDS011;60111;48.286;7.812;2023-04-15T15:37:19;13.57;;;7.37;;
72205;SDS011;60111;48.286;7.812;2023-04-15T15:39:52;11.85;;;6.03;;
72205;SDS011;60111;48.286;7.812;2023-04-15T15:42:25;3.67;;;2.40;;
72205;SDS011;60111;48.286;7.812;2023-04-15T15:45:01;3.67;;;2.00;;
72205;SDS011;60111;48.286;7.812;2023-04-15T15:47:35;5.60;;;3.10;;